createdAt,value
2023-05-14T00:02:03.907Z,5.53
2023-05-14T00:04:31.649Z,5.57
2023-05-14T00:06:59.134Z,5.18
2023-05-14T00:09:26.485Z,5.15
2023-05-14T00:11:54.185Z,4.85
2023-05-14T00:14:22.054Z,5.05
2023-05-14T00:16:49.789Z,5.53
2023-05-14T00:19:18.106Z,5.50
2023-05-14T00:21:45.585Z,5.82
2023-05-14T00:24:12.991Z,5.32
2023-05-14T00:26:40.700Z,5.50
2023-05-14T00:29:08.129Z,5.22
2023-05-14T00:31:35.728Z,5.43
2023-05-14T00:34:03.578Z,5.40
2023-05-14T00:36:31.418Z,6.10
2023-05-14T00:38:58.857Z,5.62
2023-05-14T00:41:26.526Z,5.70
2023-05-14T00:43:53.886Z,5.93
2023-05-14T00:46:21.641Z,5.82
2023-05-14T00:48:49.663Z,5.32
2023-05-14T00:51:19.082Z,5.75
2023-05-14T00:53:47.115Z,5.95
2023-05-14T00:56:15.909Z,5.45
2023-05-14T00:58:43.460Z,5.65
2023-05-14T01:01:12.265Z,5.87
2023-05-14T01:03:40.144Z,5.60
2023-05-14T01:06:13.543Z,5.78
2023-05-14T01:08:50.002Z,5.20
2023-05-14T01:11:26.251Z,5.32
2023-05-14T01:13:59.069Z,5.82
2023-05-14T01:16:28.172Z,5.12
2023-05-14T01:18:56.853Z,5.20
2023-05-14T01:21:37.439Z,4.97
2023-05-14T01:24:05.384Z,5.35
2023-05-14T01:26:33.237Z,5.22
2023-05-14T01:29:23.460Z,5.20
2023-05-14T01:31:54.590Z,5.43
2023-05-14T01:34:24.429Z,5.32
2023-05-14T01:36:53.559Z,5.35
2023-05-14T01:39:21.549Z,4.60
2023-05-14T01:41:49.092Z,5.62
2023-05-14T01:44:17.619Z,5.40
2023-05-14T01:46:45.011Z,5.10
2023-05-14T01:49:12.571Z,5.25
2023-05-14T01:51:40.373Z,5.35
2023-05-14T01:54:08.033Z,4.90
2023-05-14T01:56:35.454Z,5.55
2023-05-14T01:59:03.333Z,5.60
2023-05-14T02:01:30.866Z,5.28
2023-05-14T02:03:58.696Z,4.97
2023-05-14T02:06:26.196Z,5.32
2023-05-14T02:08:56.050Z,4.53
2023-05-14T02:11:23.872Z,4.82
2023-05-14T02:13:51.612Z,4.60
2023-05-14T02:16:19.318Z,4.60
2023-05-14T02:18:46.884Z,4.87
2023-05-14T02:21:14.658Z,4.53
2023-05-14T02:23:42.976Z,4.95
2023-05-14T02:26:11.169Z,4.40
2023-05-14T02:28:38.805Z,4.45
2023-05-14T02:31:06.308Z,4.60
2023-05-14T02:33:34.081Z,4.60
2023-05-14T02:36:01.894Z,4.55
2023-05-14T02:38:29.412Z,4.87
2023-05-14T02:40:57.091Z,5.40
2023-05-14T02:43:24.852Z,4.90
2023-05-14T02:45:52.690Z,4.75
2023-05-14T02:48:20.304Z,4.70
2023-05-14T02:50:49.869Z,4.68
2023-05-14T02:53:17.443Z,4.70
2023-05-14T02:55:44.830Z,4.60
2023-05-14T02:58:12.552Z,5.12
2023-05-14T03:00:40.243Z,4.47
2023-05-14T03:03:08.235Z,4.47
2023-05-14T03:05:36.593Z,5.10
2023-05-14T03:08:04.078Z,4.68
2023-05-14T03:10:32.904Z,4.90
2023-05-14T03:13:00.700Z,5.22
2023-05-14T03:15:28.365Z,5.15
2023-05-14T03:17:56.083Z,4.97
2023-05-14T03:20:27.157Z,4.68
2023-05-14T03:22:56.071Z,5.10
2023-05-14T03:25:23.826Z,4.68
2023-05-14T03:27:52.075Z,4.50
2023-05-14T03:30:19.449Z,4.70
2023-05-14T03:32:47.155Z,4.70
2023-05-14T03:35:14.872Z,4.72
2023-05-14T03:37:42.317Z,4.93
2023-05-14T03:40:10.469Z,4.72
2023-05-14T03:42:37.853Z,4.07
2023-05-14T03:45:06.086Z,4.78
2023-05-14T03:47:33.880Z,5.18
2023-05-14T03:50:01.491Z,5.15
2023-05-14T03:52:28.903Z,4.80
2023-05-14T03:54:56.718Z,5.72
2023-05-14T03:57:24.150Z,5.05
2023-05-14T03:59:51.532Z,4.62
2023-05-14T04:02:20.141Z,5.25
2023-05-14T04:04:48.027Z,3.97
2023-05-14T04:07:18.475Z,4.30
2023-05-14T04:09:45.880Z,4.60
2023-05-14T04:12:13.547Z,4.47
2023-05-14T04:14:41.544Z,4.05
2023-05-14T04:17:08.920Z,4.53
2023-05-14T04:19:36.643Z,4.60
2023-05-14T04:22:04.261Z,4.35
2023-05-14T04:24:31.675Z,3.72
2023-05-14T04:26:59.739Z,4.22
2023-05-14T04:29:27.328Z,4.18
2023-05-14T04:31:54.770Z,4.03
2023-05-14T04:34:22.561Z,4.20
2023-05-14T04:36:49.985Z,3.83
2023-05-14T04:39:18.886Z,4.80
2023-05-14T04:41:46.561Z,3.85
2023-05-14T04:44:14.025Z,4.10
2023-05-14T04:46:41.486Z,3.85
2023-05-14T04:49:09.312Z,3.75
2023-05-14T04:51:36.676Z,3.97
2023-05-14T04:54:04.193Z,3.92
2023-05-14T04:56:31.934Z,3.80
2023-05-14T04:58:59.330Z,3.78
2023-05-14T05:01:26.797Z,3.33
2023-05-14T05:03:55.400Z,4.47
2023-05-14T05:06:23.217Z,4.87
2023-05-14T05:08:50.611Z,3.97
2023-05-14T05:11:18.347Z,3.60
2023-05-14T05:13:46.100Z,3.40
2023-05-14T05:16:13.542Z,3.65
2023-05-14T05:18:41.322Z,3.60
2023-05-14T05:21:08.737Z,3.30
2023-05-14T05:23:36.124Z,3.85
2023-05-14T05:26:03.938Z,3.85
2023-05-14T05:28:31.342Z,3.60
2023-05-14T05:30:58.898Z,3.60
2023-05-14T05:33:26.659Z,3.40
2023-05-14T05:35:54.064Z,3.40
2023-05-14T05:38:21.556Z,3.67
2023-05-14T05:40:49.240Z,4.45
2023-05-14T05:43:16.803Z,3.85
2023-05-14T05:45:45.832Z,3.22
2023-05-14T05:48:13.618Z,3.87
2023-05-14T05:50:41.088Z,3.25
2023-05-14T05:53:08.459Z,3.45
2023-05-14T05:55:36.156Z,4.22
2023-05-14T05:58:03.615Z,4.00
2023-05-14T06:00:31.493Z,3.47
2023-05-14T06:02:59.267Z,3.53
2023-05-14T06:05:26.804Z,3.90
2023-05-14T06:07:54.415Z,4.22
2023-05-14T06:10:22.348Z,4.32
2023-05-14T06:12:49.931Z,3.97
2023-05-14T06:15:17.309Z,4.53
2023-05-14T06:17:44.989Z,5.07
2023-05-14T06:20:12.766Z,3.80
2023-05-14T06:22:40.241Z,3.90
2023-05-14T06:25:08.317Z,4.45
2023-05-14T06:27:35.758Z,4.40
2023-05-14T06:30:03.654Z,4.47
2023-05-14T06:32:31.499Z,4.70
2023-05-14T06:34:59.136Z,4.62
2023-05-14T06:37:26.494Z,4.72
2023-05-14T06:39:55.731Z,5.25
2023-05-14T06:42:24.466Z,4.25
2023-05-14T06:44:52.013Z,5.40
2023-05-14T06:47:19.735Z,4.45
2023-05-14T06:49:47.149Z,4.78
2023-05-14T06:52:14.837Z,4.35
2023-05-14T06:54:42.493Z,4.80
2023-05-14T06:57:09.869Z,4.75
2023-05-14T06:59:38.006Z,5.05
2023-05-14T07:02:05.962Z,4.00
2023-05-14T07:04:33.573Z,4.87
2023-05-14T07:07:01.091Z,4.90
2023-05-14T07:09:28.910Z,4.82
2023-05-14T07:11:56.256Z,5.10
2023-05-14T07:14:23.655Z,5.03
2023-05-14T07:16:51.347Z,5.25
2023-05-14T07:19:18.898Z,5.47
2023-05-14T07:21:46.309Z,5.25
2023-05-14T07:24:14.011Z,4.82
2023-05-14T07:26:41.466Z,4.93
2023-05-14T07:29:09.319Z,4.62
2023-05-14T07:31:36.981Z,4.47
2023-05-14T07:34:04.341Z,5.40
2023-05-14T07:36:32.026Z,4.80
2023-05-14T07:38:59.709Z,5.22
2023-05-14T07:41:27.352Z,4.82
2023-05-14T07:43:54.767Z,4.97
2023-05-14T07:46:23.900Z,4.72
2023-05-14T07:48:51.506Z,4.75
2023-05-14T07:51:18.914Z,4.65
2023-05-14T07:53:46.607Z,4.75
2023-05-14T07:56:13.972Z,4.85
2023-05-14T07:58:41.412Z,5.10
2023-05-14T08:01:09.190Z,4.93
2023-05-14T08:03:37.069Z,4.70
2023-05-14T08:06:04.660Z,5.07
2023-05-14T08:08:32.417Z,4.72
2023-05-14T08:11:00.640Z,5.30
2023-05-14T08:13:28.108Z,5.45
2023-05-14T08:15:56.044Z,5.10
2023-05-14T08:18:23.701Z,5.10
2023-05-14T08:20:51.760Z,4.85
2023-05-14T08:23:19.155Z,5.18
2023-05-14T08:25:46.820Z,5.00
2023-05-14T08:28:14.238Z,4.70
2023-05-14T08:30:41.686Z,4.97
2023-05-14T08:33:09.492Z,5.15
2023-05-14T08:35:36.958Z,4.40
2023-05-14T08:38:04.312Z,4.65
2023-05-14T08:40:32.187Z,4.95
2023-05-14T08:43:00.793Z,4.32
2023-05-14T08:45:33.837Z,4.25
2023-05-14T08:48:02.641Z,4.68
2023-05-14T08:50:31.052Z,5.00
2023-05-14T08:52:58.924Z,4.35
2023-05-14T08:55:26.794Z,4.12
2023-05-14T08:57:54.146Z,4.62
2023-05-14T09:00:22.555Z,4.60
2023-05-14T09:02:50.975Z,5.12
2023-05-14T09:05:19.540Z,4.60
2023-05-14T09:07:46.977Z,5.40
2023-05-14T09:10:15.691Z,4.80
2023-05-14T09:12:43.179Z,4.85
2023-05-14T09:15:10.961Z,4.62
2023-05-14T09:17:38.685Z,5.03
2023-05-14T09:20:07.001Z,5.22
2023-05-14T09:22:34.835Z,4.90
2023-05-14T09:25:06.926Z,5.05
2023-05-14T09:27:35.559Z,5.28
2023-05-14T09:30:11.038Z,5.47
2023-05-14T09:32:45.795Z,5.37
2023-05-14T09:35:25.048Z,6.07
2023-05-14T09:37:54.401Z,5.30
2023-05-14T09:40:24.126Z,5.15
2023-05-14T09:42:52.171Z,5.72
2023-05-14T09:45:19.623Z,5.37
2023-05-14T09:47:47.527Z,5.93
2023-05-14T09:50:15.159Z,5.82
2023-05-14T09:52:42.511Z,5.53
2023-05-14T09:55:10.190Z,6.43
2023-05-14T09:57:37.744Z,6.60
2023-05-14T10:00:06.791Z,5.22
2023-05-14T10:02:38.169Z,5.95
2023-05-14T10:05:07.435Z,5.28
2023-05-14T10:07:43.214Z,6.05
2023-05-14T10:10:14.992Z,6.12
2023-05-14T10:12:44.931Z,6.55
2023-05-14T10:15:19.132Z,6.10
2023-05-14T10:17:50.123Z,6.37
2023-05-14T10:20:18.083Z,5.73
2023-05-14T10:22:46.312Z,5.93
2023-05-14T10:25:13.965Z,6.25
2023-05-14T10:27:42.361Z,5.35
2023-05-14T10:30:13.172Z,5.90
2023-05-14T10:32:41.931Z,6.30
2023-05-14T10:35:22.164Z,6.00
2023-05-14T10:37:51.469Z,6.40
2023-05-14T10:40:19.490Z,6.72
2023-05-14T10:42:47.259Z,6.07
2023-05-14T10:45:15.357Z,7.07
2023-05-14T10:47:44.581Z,6.03
2023-05-14T10:50:14.128Z,5.87
2023-05-14T10:52:45.545Z,6.57
2023-05-14T10:55:15.098Z,5.68
2023-05-14T10:57:44.791Z,6.07
2023-05-14T11:00:14.151Z,6.37
2023-05-14T11:02:43.799Z,6.28
2023-05-14T11:05:16.858Z,5.93
2023-05-14T11:07:46.491Z,5.93
2023-05-14T11:10:15.685Z,6.47
2023-05-14T11:12:45.114Z,6.55
2023-05-14T11:15:14.916Z,6.18
2023-05-14T11:17:43.720Z,5.75
2023-05-14T11:20:11.701Z,6.55
2023-05-14T11:22:40.736Z,5.90
2023-05-14T11:25:08.815Z,5.93
2023-05-14T11:27:38.627Z,6.03
2023-05-14T11:30:21.547Z,6.18
2023-05-14T11:32:50.358Z,5.85
2023-05-14T11:35:18.443Z,5.70
2023-05-14T11:37:52.524Z,6.32
2023-05-14T11:40:20.295Z,6.57
2023-05-14T11:42:51.194Z,6.37
2023-05-14T11:45:29.975Z,6.62
2023-05-14T11:47:57.862Z,6.93
2023-05-14T11:50:25.499Z,5.82
2023-05-14T11:52:57.063Z,6.37
2023-05-14T11:55:24.769Z,7.30
2023-05-14T11:57:52.222Z,6.87
2023-05-14T12:00:22.058Z,7.43
2023-05-14T12:02:50.395Z,6.32
2023-05-14T12:05:18.986Z,7.30
2023-05-14T12:07:47.361Z,7.07
2023-05-14T12:10:15.050Z,7.00
2023-05-14T12:12:45.607Z,7.05
2023-05-14T12:15:14.086Z,7.60
2023-05-14T12:17:42.097Z,7.53
2023-05-14T12:20:11.045Z,7.75
2023-05-14T12:22:38.773Z,7.10
2023-05-14T12:25:12.325Z,7.53
2023-05-14T12:27:39.980Z,7.43
2023-05-14T12:32:42.271Z,6.62
2023-05-14T12:35:10.132Z,6.90
2023-05-14T12:37:39.854Z,6.40
2023-05-14T12:40:10.595Z,6.25
2023-05-14T12:42:38.289Z,6.18
2023-05-14T12:45:08.075Z,6.47
2023-05-14T12:47:36.832Z,6.75
2023-05-14T12:50:05.837Z,7.12
2023-05-14T12:52:38.494Z,6.80
2023-05-14T12:55:09.305Z,6.68
2023-05-14T12:57:39.071Z,6.85
2023-05-14T13:00:12.967Z,7.30
2023-05-14T13:02:42.395Z,6.80
2023-05-14T13:05:11.876Z,7.28
2023-05-14T13:07:39.556Z,6.87
2023-05-14T13:10:07.360Z,6.97
2023-05-14T13:12:35.199Z,6.65
2023-05-14T13:15:02.595Z,7.40
2023-05-14T13:17:32.252Z,6.87
2023-05-14T13:19:59.948Z,7.65
2023-05-14T13:22:27.416Z,6.95
2023-05-14T13:24:54.774Z,8.00
2023-05-14T13:27:22.476Z,7.15
2023-05-14T13:29:50.034Z,7.40
2023-05-14T13:32:17.536Z,7.00
2023-05-14T13:34:45.291Z,7.22
2023-05-14T13:37:12.730Z,8.10
2023-05-14T13:39:41.155Z,7.40
2023-05-14T13:42:09.066Z,7.85
2023-05-14T13:44:36.737Z,6.75
2023-05-14T13:47:04.441Z,6.53
2023-05-14T13:49:32.184Z,7.30
2023-05-14T13:51:59.708Z,7.37
2023-05-14T13:54:27.084Z,7.32
2023-05-14T13:56:54.794Z,7.75
2023-05-14T13:59:22.276Z,7.05
2023-05-14T14:01:50.628Z,7.85
2023-05-14T14:04:19.893Z,8.38
2023-05-14T14:06:47.334Z,7.50
2023-05-14T14:09:14.759Z,7.68
2023-05-14T14:11:42.431Z,7.65
2023-05-14T14:14:09.870Z,8.63
2023-05-14T14:16:37.316Z,8.95
2023-05-14T14:19:05.337Z,7.70
2023-05-14T14:21:33.018Z,7.72
2023-05-14T14:24:00.455Z,7.95
2023-05-14T14:26:29.225Z,7.75
2023-05-14T14:28:56.646Z,6.93
2023-05-14T14:31:24.220Z,7.10
2023-05-14T14:33:52.193Z,7.80
2023-05-14T14:36:19.628Z,6.35
2023-05-14T14:38:46.993Z,6.85
2023-05-14T14:41:14.612Z,6.78
2023-05-14T14:43:43.377Z,7.20
2023-05-14T14:46:11.056Z,7.60
2023-05-14T14:48:39.007Z,6.78
2023-05-14T14:51:07.432Z,6.57
2023-05-14T14:53:36.039Z,6.57
2023-05-14T14:56:04.458Z,5.10
2023-05-14T14:58:32.117Z,5.62
2023-05-14T15:01:01.065Z,4.93
2023-05-14T15:03:29.298Z,4.57
2023-05-14T15:05:56.891Z,4.95
2023-05-14T15:08:28.238Z,4.40
2023-05-14T15:10:56.289Z,4.32
2023-05-14T15:13:24.657Z,4.00
2023-05-14T15:15:52.757Z,4.40
2023-05-14T15:18:20.615Z,4.62
2023-05-14T15:20:48.285Z,4.30
2023-05-14T15:23:15.838Z,4.35
2023-05-14T15:25:43.565Z,4.45
2023-05-14T15:28:11.193Z,4.37
2023-05-14T15:30:38.884Z,4.05
2023-05-14T15:33:08.299Z,4.55
2023-05-14T15:35:36.509Z,4.55
2023-05-14T15:38:03.896Z,4.47
2023-05-14T15:40:33.134Z,3.70
2023-05-14T15:43:00.778Z,3.70
2023-05-14T15:45:28.375Z,4.60
2023-05-14T15:47:56.157Z,4.10
2023-05-14T15:50:23.873Z,3.97
2023-05-14T15:52:51.433Z,4.25
2023-05-14T15:55:19.228Z,4.25
2023-05-14T15:57:46.669Z,4.82
2023-05-14T16:00:14.704Z,4.35
2023-05-14T16:02:42.464Z,4.12
2023-05-14T16:05:09.909Z,4.32
2023-05-14T16:07:37.538Z,4.18
2023-05-14T16:10:06.113Z,4.05
2023-05-14T16:12:33.746Z,4.05
2023-05-14T16:15:01.258Z,4.32
2023-05-14T16:17:30.454Z,4.20
2023-05-14T16:19:59.967Z,4.07
2023-05-14T16:22:29.266Z,5.25
2023-05-14T16:24:56.932Z,4.93
2023-05-14T16:27:24.512Z,4.50
2023-05-14T16:29:52.015Z,4.72
2023-05-14T16:32:20.176Z,4.70
2023-05-14T16:34:49.893Z,5.18
2023-05-14T16:37:17.825Z,4.28
2023-05-14T16:39:45.985Z,4.12
2023-05-14T16:42:13.526Z,4.32
2023-05-14T16:44:40.933Z,4.20
2023-05-14T16:47:08.630Z,3.90
2023-05-14T16:49:36.042Z,3.87
2023-05-14T16:52:03.951Z,3.78
2023-05-14T16:54:31.591Z,3.80
2023-05-14T16:56:58.937Z,4.07
2023-05-14T16:59:26.312Z,3.53
2023-05-14T17:01:54.149Z,4.15
2023-05-14T17:04:21.682Z,3.87
2023-05-14T17:06:49.269Z,3.87
2023-05-14T17:09:17.703Z,4.10
2023-05-14T17:11:45.115Z,4.20
2023-05-14T17:14:12.487Z,3.83
2023-05-14T17:16:42.284Z,4.03
2023-05-14T17:19:10.097Z,3.90
2023-05-14T17:21:37.604Z,3.90
2023-05-14T17:24:05.598Z,3.67
2023-05-14T17:26:33.101Z,3.65
2023-05-14T17:29:00.712Z,3.65
2023-05-14T17:31:28.404Z,4.10
2023-05-14T17:33:55.842Z,3.62
2023-05-14T17:36:23.307Z,3.87
2023-05-14T17:38:51.008Z,4.12
2023-05-14T17:41:18.408Z,4.15
2023-05-14T17:43:45.851Z,3.97
2023-05-14T17:46:13.538Z,4.35
2023-05-14T17:48:40.985Z,3.80
2023-05-14T17:51:08.385Z,4.30
2023-05-14T17:53:36.104Z,4.45
2023-05-14T17:56:03.702Z,5.70
2023-05-14T17:58:31.165Z,4.90
2023-05-14T18:00:58.857Z,5.87
2023-05-14T18:03:26.919Z,4.47
2023-05-14T18:05:54.504Z,4.97
2023-05-14T18:08:22.116Z,4.50
2023-05-14T18:10:49.885Z,4.35
2023-05-14T18:13:17.252Z,4.55
2023-05-14T18:15:44.947Z,5.35
2023-05-14T18:18:12.969Z,5.90
2023-05-14T18:20:40.444Z,5.05
2023-05-14T18:23:08.101Z,5.62
2023-05-14T18:25:35.882Z,9.38
2023-05-14T18:28:03.393Z,6.50
2023-05-14T18:30:30.858Z,6.40
2023-05-14T18:32:59.755Z,6.37
2023-05-14T18:35:27.890Z,6.65
2023-05-14T18:37:55.667Z,6.12
2023-05-14T18:40:23.417Z,7.20
2023-05-14T18:42:50.934Z,6.82
2023-05-14T18:45:18.657Z,6.28
2023-05-14T18:47:46.642Z,5.78
2023-05-14T18:50:14.054Z,6.55
2023-05-14T18:52:41.645Z,6.37
2023-05-14T18:55:09.502Z,6.12
2023-05-14T18:57:37.210Z,6.47
2023-05-14T19:00:05.134Z,5.70
2023-05-14T19:02:33.608Z,6.10
2023-05-14T19:05:01.064Z,5.25
2023-05-14T19:07:30.339Z,6.47
2023-05-14T19:09:58.015Z,6.57
2023-05-14T19:12:26.545Z,6.15
2023-05-14T19:14:54.005Z,5.30
2023-05-14T19:17:21.854Z,5.22
2023-05-14T19:19:49.341Z,5.70
2023-05-14T19:22:17.017Z,5.75
2023-05-14T19:24:44.669Z,5.87
2023-05-14T19:27:16.080Z,5.87
2023-05-14T19:29:44.026Z,5.87
2023-05-14T19:32:11.649Z,5.10
2023-05-14T19:34:39.113Z,5.37
2023-05-14T19:37:06.688Z,6.28
2023-05-14T19:39:34.375Z,6.10
2023-05-14T19:42:01.787Z,5.93
2023-05-14T19:44:29.392Z,5.57
2023-05-14T19:46:57.145Z,5.25
2023-05-14T19:49:24.558Z,6.00
2023-05-14T19:51:51.968Z,6.30
2023-05-14T19:54:19.659Z,5.68
2023-05-14T19:56:47.127Z,6.45
2023-05-14T19:59:14.542Z,6.30
2023-05-14T20:01:42.319Z,6.68
2023-05-14T20:04:10.591Z,7.12
2023-05-14T20:06:38.287Z,7.25
2023-05-14T20:09:05.887Z,7.35
2023-05-14T20:11:33.565Z,7.10
2023-05-14T20:14:00.909Z,6.75
2023-05-14T20:16:28.601Z,6.95
2023-05-14T20:18:56.536Z,6.60
2023-05-14T20:21:24.054Z,6.50
2023-05-14T20:23:51.488Z,5.78
2023-05-14T20:26:19.215Z,6.10
2023-05-14T20:28:46.604Z,6.50
2023-05-14T20:31:14.052Z,5.75
2023-05-14T20:33:41.885Z,6.10
2023-05-14T20:36:09.279Z,6.60
2023-05-14T20:38:37.198Z,6.30
2023-05-14T20:41:04.909Z,7.00
2023-05-14T20:43:32.544Z,6.15
2023-05-14T20:46:00.641Z,6.85
2023-05-14T20:48:28.427Z,6.50
2023-05-14T20:50:55.786Z,5.93
2023-05-14T20:53:23.350Z,5.95
2023-05-14T20:55:51.057Z,7.47
2023-05-14T20:58:18.386Z,7.47
2023-05-14T21:00:45.895Z,6.95
2023-05-14T21:03:13.691Z,6.97
2023-05-14T21:05:43.618Z,6.97
2023-05-14T21:08:11.334Z,6.68
2023-05-14T21:10:38.969Z,6.95
2023-05-14T21:13:07.133Z,6.55
2023-05-14T21:15:34.541Z,7.55
2023-05-14T21:18:02.285Z,7.47
2023-05-14T21:20:29.837Z,6.65
2023-05-14T21:22:57.229Z,7.62
2023-05-14T21:25:25.262Z,7.25
2023-05-14T21:27:52.970Z,7.43
2023-05-14T21:30:20.410Z,7.57
2023-05-14T21:32:48.142Z,7.40
2023-05-14T21:35:15.636Z,7.60
2023-05-14T21:37:43.311Z,7.00
2023-05-14T21:40:14.815Z,7.47
2023-05-14T21:42:42.508Z,7.43
2023-05-14T21:45:10.523Z,7.03
2023-05-14T21:47:38.517Z,7.28
2023-05-14T21:50:06.847Z,6.90
2023-05-14T21:52:34.327Z,7.07
2023-05-14T21:55:01.996Z,7.57
2023-05-14T21:57:31.786Z,6.40
2023-05-14T22:00:03.513Z,6.70
2023-05-14T22:02:32.779Z,6.70
2023-05-14T22:05:00.692Z,6.22
2023-05-14T22:07:28.605Z,6.25
2023-05-14T22:09:56.238Z,6.03
2023-05-14T22:12:23.927Z,6.20
2023-05-14T22:14:51.350Z,5.70
2023-05-14T22:17:18.719Z,6.00
2023-05-14T22:19:46.370Z,4.95
2023-05-14T22:22:13.797Z,5.43
2023-05-14T22:24:41.261Z,5.85
2023-05-14T22:27:09.030Z,5.55
2023-05-14T22:29:38.166Z,5.28
2023-05-14T22:32:08.163Z,5.75
2023-05-14T22:34:36.792Z,5.20
2023-05-14T22:37:04.307Z,5.62
2023-05-14T22:39:31.807Z,4.72
2023-05-14T22:41:59.557Z,5.50
2023-05-14T22:44:29.105Z,5.28
2023-05-14T22:46:57.502Z,5.85
2023-05-14T22:49:25.546Z,5.62
2023-05-14T22:51:55.582Z,6.47
2023-05-14T22:54:22.958Z,5.03
2023-05-14T22:56:51.387Z,5.28
2023-05-14T22:59:19.025Z,5.60
2023-05-14T23:01:47.246Z,5.87
2023-05-14T23:04:15.021Z,5.07
2023-05-14T23:06:42.502Z,4.97
2023-05-14T23:09:09.909Z,5.40
2023-05-14T23:11:37.616Z,5.50
2023-05-14T23:14:05.001Z,5.68
2023-05-14T23:16:32.428Z,5.45
2023-05-14T23:19:00.315Z,5.32
2023-05-14T23:21:27.897Z,5.93
2023-05-14T23:23:55.326Z,5.87
2023-05-14T23:26:22.954Z,5.50
2023-05-14T23:28:51.111Z,5.15
2023-05-14T23:31:18.608Z,5.53
2023-05-14T23:33:46.715Z,5.43
2023-05-14T23:36:14.166Z,5.53
2023-05-14T23:38:41.682Z,5.25
2023-05-14T23:41:09.438Z,5.87
2023-05-14T23:43:36.851Z,5.60
2023-05-14T23:46:04.434Z,5.60
2023-05-14T23:48:32.151Z,5.53
2023-05-14T23:50:59.572Z,5.40
2023-05-14T23:53:26.969Z,6.00
2023-05-14T23:55:54.790Z,6.22
2023-05-14T23:58:22.251Z,6.10
